Radstock, United Kingdom
Current Conditions -  °F | °C
As of 4:50 PM on Saturday 25 Oct 2014 (Local Time) from EGGD Reporting Station
Broken Clouds Broken Clouds  
Wind Chill: 54°   Ceiling: 4000
Heat Index: 54°   Visibility: 6mi
Dew Point: 48°   Wind: 12mph
Humidity: 82%   Direction: 230°SW
Pressure: 30.06"   Gusts: NA
Location:  51.29°N, 2.46°W
Report Text: EGGD 251550Z 23010KT 9999 BKN040 12/09 Q1018
Loading
Personal Weather Stations






























Interactive Weather Map
Tropical Storm Tracking
New forecast layout! Learn more

10-Day Weather Forecast

Advertisements
Track Severe Weather on mobile